createdAt,value
2018-12-26T00:00:58.685Z,100.78
2018-12-26T00:01:59.192Z,100.87
2018-12-26T00:03:00.584Z,100.72
2018-12-26T00:04:01.051Z,100.53
2018-12-26T00:05:01.424Z,100.45
2018-12-26T00:06:01.981Z,100.38
2018-12-26T00:07:02.369Z,100.79
2018-12-26T00:08:02.681Z,100.92
2018-12-26T00:09:03.226Z,100.56
2018-12-26T00:10:02.521Z,100.27
2018-12-26T00:11:03.837Z,100.06
2018-12-26T00:12:04.190Z,100.06
2018-12-26T00:13:04.644Z,100.38
2018-12-26T00:14:05.151Z,100.06
2018-12-26T00:15:05.535Z,100.21
2018-12-26T00:16:05.991Z,100.15
2018-12-26T00:17:06.325Z,99.90
2018-12-26T00:18:06.612Z,99.98
2018-12-26T00:19:06.922Z,100.08
2018-12-26T00:20:07.439Z,99.87
2018-12-26T00:21:06.651Z,99.87
2018-12-26T00:22:08.393Z,99.68
2018-12-26T00:23:08.702Z,99.87
2018-12-26T00:24:09.058Z,99.81
2018-12-26T00:25:08.444Z,99.84
2018-12-26T00:26:08.659Z,99.84
2018-12-26T00:27:10.061Z,100.28
2018-12-26T00:28:10.424Z,100.60
2018-12-26T00:29:10.767Z,101.01
2018-12-26T00:30:11.071Z,100.88
2018-12-26T00:31:11.437Z,101.13
2018-12-26T00:32:11.762Z,101.19
2018-12-26T00:33:12.112Z,101.04
2018-12-26T00:34:12.514Z,101.47
2018-12-26T00:35:12.993Z,101.74
2018-12-26T00:36:13.357Z,101.87
2018-12-26T00:37:13.719Z,102.31
2018-12-26T00:38:14.382Z,103.04
2018-12-26T00:39:14.809Z,103.09
2018-12-26T00:40:15.425Z,103.35
2018-12-26T00:41:15.729Z,103.20
2018-12-26T00:42:16.199Z,103.13
2018-12-26T00:43:16.531Z,103.18
2018-12-26T00:44:16.842Z,102.89
2018-12-26T00:45:17.153Z,102.89
2018-12-26T00:46:17.489Z,102.97
2018-12-26T00:47:17.813Z,102.96
2018-12-26T00:47:26.248Z,103.03
2018-12-26T00:48:27.556Z,103.02
2018-12-26T00:49:27.914Z,103.06
2018-12-26T00:50:28.267Z,103.00
2018-12-26T00:51:28.631Z,102.94
2018-12-26T00:52:28.104Z,103.29
2018-12-26T00:53:29.505Z,103.42
2018-12-26T00:54:30.080Z,103.57
2018-12-26T00:55:30.447Z,103.38
2018-12-26T00:56:30.921Z,103.51
2018-12-26T00:57:31.692Z,103.71
2018-12-26T00:58:32.061Z,103.56
2018-12-26T00:59:32.622Z,103.55
2018-12-26T01:00:32.994Z,103.04
2018-12-26T01:01:32.296Z,102.80
2018-12-26T01:02:33.816Z,103.03
2018-12-26T01:03:34.165Z,102.97
2018-12-26T01:04:34.451Z,102.93
2018-12-26T01:05:34.754Z,102.87
2018-12-26T01:06:35.081Z,102.60
2018-12-26T01:07:35.795Z,102.47
2018-12-26T01:08:36.148Z,101.99
2018-12-26T01:09:36.655Z,101.57
2018-12-26T01:10:36.983Z,101.43
2018-12-26T01:11:37.834Z,101.62
2018-12-26T01:12:38.414Z,101.44
2018-12-26T01:13:39.118Z,101.62
2018-12-26T01:14:39.426Z,101.63
2018-12-26T01:15:39.720Z,101.82
2018-12-26T01:16:40.092Z,101.85
2018-12-26T01:17:40.380Z,101.78
2018-12-26T01:18:40.722Z,102.13
2018-12-26T01:19:41.343Z,101.84
2018-12-26T01:20:41.809Z,101.49
2018-12-26T01:21:42.098Z,101.49
2018-12-26T01:22:42.404Z,101.75
2018-12-26T01:23:42.781Z,101.68
2018-12-26T01:24:43.258Z,101.56
2018-12-26T01:25:43.582Z,101.71
2018-12-26T01:26:43.912Z,102.02
2018-12-26T01:27:44.284Z,101.80
2018-12-26T01:28:44.631Z,101.40
2018-12-26T01:29:45.009Z,101.51
2018-12-26T01:30:45.407Z,101.49
2018-12-26T01:31:45.695Z,101.70
2018-12-26T01:32:46.013Z,101.98
2018-12-26T01:32:54.063Z,101.59
2018-12-26T01:33:55.491Z,101.55
2018-12-26T01:34:55.852Z,101.35
2018-12-26T01:35:56.276Z,101.69
2018-12-26T01:36:56.596Z,102.02
2018-12-26T01:37:56.979Z,102.09
2018-12-26T01:38:57.336Z,102.31
2018-12-26T01:39:57.745Z,102.57
2018-12-26T01:40:58.070Z,102.43
2018-12-26T01:41:58.409Z,102.36
2018-12-26T01:42:58.673Z,102.33
2018-12-26T01:43:59.137Z,102.37
2018-12-26T01:44:59.480Z,101.94
2018-12-26T01:45:59.819Z,101.89
2018-12-26T01:47:00.138Z,101.91
2018-12-26T01:48:00.769Z,101.67
2018-12-26T01:49:01.121Z,101.77
2018-12-26T01:50:01.491Z,101.13
2018-12-26T01:51:01.914Z,100.75
2018-12-26T01:52:02.210Z,101.01
2018-12-26T01:53:02.513Z,101.05
2018-12-26T01:54:02.860Z,101.21
2018-12-26T01:55:03.208Z,101.41
2018-12-26T01:56:03.516Z,101.85
2018-12-26T01:57:04.133Z,102.05
2018-12-26T01:58:04.514Z,102.23
2018-12-26T01:59:06.936Z,102.33
2018-12-26T02:00:04.304Z,102.07
2018-12-26T02:01:05.662Z,102.12
2018-12-26T02:02:05.923Z,102.22
2018-12-26T02:03:06.368Z,102.07
2018-12-26T02:04:07.930Z,101.49
2018-12-26T02:05:07.367Z,101.26
2018-12-26T02:06:07.856Z,101.19
2018-12-26T02:07:08.170Z,101.25
2018-12-26T02:08:08.709Z,100.34
2018-12-26T02:09:09.058Z,100.28
2018-12-26T02:10:09.317Z,100.11
2018-12-26T02:11:09.637Z,100.27
2018-12-26T02:12:09.939Z,100.68
2018-12-26T02:13:10.394Z,100.81
2018-12-26T02:14:10.792Z,100.75
2018-12-26T02:15:11.310Z,100.83
2018-12-26T02:16:11.620Z,100.44
2018-12-26T02:17:12.324Z,100.65
2018-12-26T02:18:12.753Z,100.50
2018-12-26T02:18:21.849Z,100.97
2018-12-26T02:19:22.393Z,100.99
2018-12-26T02:20:22.822Z,101.15
2018-12-26T02:21:23.353Z,100.89
2018-12-26T02:22:23.709Z,100.95
2018-12-26T02:23:24.099Z,100.84
2018-12-26T02:24:24.675Z,100.83
2018-12-26T02:25:24.916Z,101.38
2018-12-26T02:26:25.463Z,101.34
2018-12-26T02:27:25.816Z,101.35
2018-12-26T02:28:26.135Z,101.70
2018-12-26T02:29:26.582Z,101.92
2018-12-26T02:30:26.863Z,101.79
2018-12-26T02:31:27.245Z,101.74
2018-12-26T02:32:30.311Z,101.68
2018-12-26T02:33:27.362Z,101.74
2018-12-26T02:34:28.844Z,101.75
2018-12-26T02:35:29.197Z,102.00
2018-12-26T02:36:29.685Z,101.99
2018-12-26T02:37:30.294Z,102.19
2018-12-26T02:38:30.606Z,102.03
2018-12-26T02:39:30.954Z,102.22
2018-12-26T02:40:31.242Z,101.99
2018-12-26T02:41:31.548Z,101.53
2018-12-26T02:42:31.976Z,100.85
2018-12-26T02:43:32.491Z,100.02
2018-12-26T02:44:32.759Z,99.67
2018-12-26T02:45:33.046Z,99.06
2018-12-26T02:46:33.798Z,99.00
2018-12-26T02:47:34.047Z,98.87
2018-12-26T02:48:34.577Z,98.97
2018-12-26T02:49:34.879Z,98.83
2018-12-26T02:50:35.311Z,99.28
2018-12-26T02:51:34.597Z,99.51
2018-12-26T02:52:35.597Z,99.66
2018-12-26T02:53:35.936Z,99.26
2018-12-26T02:54:36.279Z,99.51
2018-12-26T02:55:36.941Z,99.71
2018-12-26T02:56:46.157Z,99.92
2018-12-26T02:57:36.511Z,100.31
2018-12-26T02:58:37.810Z,100.89
2018-12-26T02:59:38.233Z,100.67
2018-12-26T03:00:38.541Z,100.32
2018-12-26T03:01:38.862Z,100.09
2018-12-26T03:02:39.321Z,100.07
2018-12-26T03:03:39.599Z,99.97
2018-12-26T03:04:40.002Z,100.00
2018-12-26T03:05:40.355Z,100.05
2018-12-26T03:05:48.435Z,99.97
2018-12-26T03:06:49.615Z,99.98
2018-12-26T03:07:49.865Z,100.00
2018-12-26T03:08:50.381Z,100.59
2018-12-26T03:09:50.656Z,101.39
2018-12-26T03:10:51.015Z,101.53
2018-12-26T03:11:50.146Z,101.72
2018-12-26T03:12:51.421Z,102.03
2018-12-26T03:13:51.785Z,102.05
2018-12-26T03:14:52.211Z,102.02
2018-12-26T03:15:52.507Z,101.83
2018-12-26T03:16:52.881Z,101.67
2018-12-26T03:17:53.253Z,101.34
2018-12-26T03:18:53.543Z,101.16
2018-12-26T03:19:53.879Z,100.76
2018-12-26T03:20:54.214Z,100.78
2018-12-26T03:21:54.853Z,100.73
2018-12-26T03:22:55.249Z,101.04
2018-12-26T03:23:55.884Z,100.92
2018-12-26T03:24:56.148Z,100.84
2018-12-26T03:25:56.479Z,100.75
2018-12-26T03:26:56.886Z,100.63
2018-12-26T03:27:57.160Z,100.46
2018-12-26T03:28:57.624Z,100.46
2018-12-26T03:29:57.992Z,100.85
2018-12-26T03:30:58.276Z,100.80
2018-12-26T03:31:58.813Z,100.64
2018-12-26T03:32:59.310Z,100.83
2018-12-26T03:33:59.598Z,100.91
2018-12-26T03:35:00.036Z,100.94
2018-12-26T03:36:00.360Z,100.99
2018-12-26T03:37:00.925Z,100.83
2018-12-26T03:38:01.220Z,100.75
2018-12-26T03:39:01.784Z,100.34
2018-12-26T03:40:02.201Z,99.25
2018-12-26T03:41:02.512Z,99.16
2018-12-26T03:42:02.799Z,99.48
2018-12-26T03:43:03.105Z,99.56
2018-12-26T03:44:03.722Z,99.72
2018-12-26T03:45:04.025Z,99.65
2018-12-26T03:46:04.674Z,99.73
2018-12-26T03:47:05.312Z,99.20
2018-12-26T03:48:05.599Z,99.65
2018-12-26T03:49:06.260Z,99.82
2018-12-26T03:50:06.732Z,100.21
2018-12-26T03:51:07.167Z,100.38
2018-12-26T03:51:15.502Z,100.35
2018-12-26T03:52:16.868Z,100.36
2018-12-26T03:53:17.126Z,99.70
2018-12-26T03:54:17.439Z,99.84
2018-12-26T03:55:16.815Z,99.91
2018-12-26T03:56:18.169Z,99.59
2018-12-26T03:57:18.957Z,99.62
2018-12-26T03:58:19.315Z,99.58
2018-12-26T03:59:19.784Z,99.47
2018-12-26T04:00:20.068Z,99.32
2018-12-26T04:01:20.411Z,99.32
2018-12-26T04:02:20.692Z,99.46
2018-12-26T04:03:20.974Z,99.52
2018-12-26T04:04:21.335Z,99.30
2018-12-26T04:05:21.796Z,99.60
2018-12-26T04:06:22.211Z,99.80
2018-12-26T04:07:22.538Z,99.50
2018-12-26T04:08:22.846Z,99.71
2018-12-26T04:09:23.266Z,99.90
2018-12-26T04:10:22.671Z,100.06
2018-12-26T04:11:23.020Z,99.94
2018-12-26T04:12:24.384Z,99.53
2018-12-26T04:13:24.982Z,99.40
2018-12-26T04:14:25.367Z,99.20
2018-12-26T04:15:25.872Z,99.02
2018-12-26T04:16:26.158Z,99.28
2018-12-26T04:17:26.434Z,99.47
2018-12-26T04:18:26.763Z,99.51
2018-12-26T04:19:27.156Z,99.27
2018-12-26T04:20:27.561Z,99.20
2018-12-26T04:21:27.900Z,99.44
2018-12-26T04:22:28.216Z,99.49
2018-12-26T04:23:28.546Z,100.03
2018-12-26T04:24:28.907Z,100.18
2018-12-26T04:25:29.586Z,99.69
2018-12-26T04:26:30.141Z,99.59
2018-12-26T04:27:30.835Z,99.07
2018-12-26T04:28:31.134Z,98.95
2018-12-26T04:29:31.651Z,98.80
2018-12-26T04:30:32.032Z,98.90
2018-12-26T04:31:32.432Z,98.98
2018-12-26T04:32:33.424Z,99.45
2018-12-26T04:33:33.778Z,99.32
2018-12-26T04:34:34.547Z,99.43
2018-12-26T04:35:34.927Z,99.57
2018-12-26T04:35:43.890Z,99.53
2018-12-26T04:36:44.561Z,99.49
2018-12-26T04:37:44.079Z,99.20
2018-12-26T04:38:45.407Z,99.32
2018-12-26T04:39:45.760Z,99.33
2018-12-26T04:40:46.074Z,99.63
2018-12-26T04:41:46.408Z,99.65
2018-12-26T04:42:46.704Z,99.86
2018-12-26T04:43:47.057Z,99.84
2018-12-26T04:44:47.338Z,99.51
2018-12-26T04:45:47.766Z,98.70
2018-12-26T04:46:48.248Z,98.98
2018-12-26T04:47:48.664Z,98.80
2018-12-26T04:48:49.128Z,98.73
2018-12-26T04:49:49.528Z,98.78
2018-12-26T04:50:49.862Z,98.93
2018-12-26T04:51:50.187Z,99.08
2018-12-26T04:52:50.623Z,99.08
2018-12-26T04:53:50.961Z,99.38
2018-12-26T04:54:51.342Z,99.62
2018-12-26T04:55:50.538Z,99.90
2018-12-26T04:56:51.873Z,99.85
2018-12-26T04:57:52.313Z,99.92
2018-12-26T04:58:52.651Z,99.93
2018-12-26T04:59:53.021Z,99.97
2018-12-26T05:00:52.319Z,99.78
2018-12-26T05:01:53.669Z,99.47
2018-12-26T05:02:54.134Z,99.06
2018-12-26T05:03:54.437Z,98.60
2018-12-26T05:04:54.730Z,98.62
2018-12-26T05:05:55.482Z,98.45
2018-12-26T05:06:55.852Z,98.58
2018-12-26T05:07:56.182Z,98.57
2018-12-26T05:08:56.671Z,98.31
2018-12-26T05:09:56.989Z,98.67
2018-12-26T05:10:57.286Z,99.18
2018-12-26T05:11:57.552Z,99.07
2018-12-26T05:12:57.857Z,98.91
2018-12-26T05:13:58.197Z,99.15
2018-12-26T05:14:58.209Z,99.18
2018-12-26T05:15:58.526Z,99.20
2018-12-26T05:16:58.897Z,98.55
2018-12-26T05:17:59.253Z,98.09
2018-12-26T05:18:59.570Z,97.95
2018-12-26T05:20:00.189Z,98.13
2018-12-26T05:21:00.580Z,98.54
2018-12-26T05:22:01.007Z,98.89
2018-12-26T05:23:01.967Z,98.57
2018-12-26T05:23:10.840Z,98.18
2018-12-26T05:24:11.160Z,98.24
2018-12-26T05:25:12.098Z,98.87
2018-12-26T05:26:12.636Z,98.98
2018-12-26T05:27:12.961Z,98.93
2018-12-26T05:28:13.509Z,98.67
2018-12-26T05:29:13.757Z,98.84
2018-12-26T05:30:14.125Z,98.76
2018-12-26T05:31:14.739Z,98.35
2018-12-26T05:32:15.142Z,98.25
2018-12-26T05:33:15.515Z,98.34
2018-12-26T05:34:15.744Z,98.24
2018-12-26T05:35:15.995Z,98.17
2018-12-26T05:36:16.687Z,97.91
2018-12-26T05:37:17.020Z,97.81
2018-12-26T05:38:17.535Z,97.37
2018-12-26T05:39:18.592Z,97.65
2018-12-26T05:40:16.715Z,97.76
2018-12-26T05:41:18.053Z,98.02
2018-12-26T05:42:18.306Z,97.72
2018-12-26T05:43:18.600Z,98.07
2018-12-26T05:44:19.162Z,97.86
2018-12-26T05:45:20.434Z,97.43
2018-12-26T05:46:19.802Z,97.38
2018-12-26T05:47:20.078Z,97.50
2018-12-26T05:48:20.620Z,97.54
2018-12-26T05:49:19.994Z,97.25
2018-12-26T05:50:21.292Z,96.98
2018-12-26T05:51:21.691Z,97.02
2018-12-26T05:52:21.954Z,97.00
2018-12-26T05:53:22.394Z,96.90
2018-12-26T05:54:22.776Z,96.24
2018-12-26T05:55:23.418Z,96.14
2018-12-26T05:56:23.759Z,95.82
2018-12-26T05:57:24.140Z,95.34
2018-12-26T05:58:23.374Z,95.62
2018-12-26T05:59:24.732Z,96.16
2018-12-26T06:00:25.055Z,96.35
2018-12-26T06:01:25.421Z,96.46
2018-12-26T06:02:24.721Z,96.56
2018-12-26T06:03:26.000Z,97.15
2018-12-26T06:04:26.401Z,97.20
2018-12-26T06:05:26.694Z,97.37
2018-12-26T06:06:27.088Z,97.69
2018-12-26T06:07:27.438Z,98.04
2018-12-26T06:08:27.798Z,98.49
2018-12-26T06:09:28.090Z,98.56
2018-12-26T06:10:28.503Z,98.49
2018-12-26T06:10:36.892Z,98.64
2018-12-26T06:11:37.551Z,98.64
2018-12-26T06:12:38.208Z,98.69
2018-12-26T06:13:38.550Z,98.32
2018-12-26T06:14:38.863Z,97.88
2018-12-26T06:15:39.203Z,97.46
2018-12-26T06:16:39.951Z,97.26
2018-12-26T06:17:40.280Z,97.08
2018-12-26T06:18:40.692Z,97.30
2018-12-26T06:19:41.229Z,97.35
2018-12-26T06:20:41.628Z,97.53
2018-12-26T06:21:42.141Z,97.89
2018-12-26T06:22:42.475Z,97.88
2018-12-26T06:23:42.927Z,97.92
2018-12-26T06:24:43.221Z,98.03
2018-12-26T06:25:43.747Z,98.10
2018-12-26T06:26:43.144Z,98.04
2018-12-26T06:27:51.391Z,97.73
2018-12-26T06:28:43.825Z,97.69
2018-12-26T06:29:45.102Z,97.87
2018-12-26T06:30:45.379Z,97.72
2018-12-26T06:31:45.737Z,97.55
2018-12-26T06:32:46.018Z,97.82
2018-12-26T06:33:46.457Z,97.79
2018-12-26T06:34:46.815Z,97.47
2018-12-26T06:35:47.063Z,97.69
2018-12-26T06:36:47.407Z,97.61
2018-12-26T06:37:47.742Z,97.87
2018-12-26T06:38:48.116Z,97.77
2018-12-26T06:39:48.432Z,97.57
2018-12-26T06:40:48.776Z,97.40
2018-12-26T06:41:49.090Z,96.20
2018-12-26T06:42:49.410Z,96.09
2018-12-26T06:43:49.707Z,95.87
2018-12-26T06:44:50.062Z,95.68
2018-12-26T06:45:50.353Z,95.86
2018-12-26T06:46:50.635Z,95.93
2018-12-26T06:47:50.969Z,96.34
2018-12-26T06:48:51.287Z,96.60
2018-12-26T06:49:51.630Z,97.40
2018-12-26T06:50:51.957Z,97.04
2018-12-26T06:51:52.414Z,97.69
2018-12-26T06:52:52.776Z,97.81
2018-12-26T06:53:53.094Z,98.03
2018-12-26T06:54:53.642Z,97.88
2018-12-26T06:55:54.033Z,97.81
2018-12-26T06:56:02.101Z,97.93
2018-12-26T06:57:03.408Z,97.94
2018-12-26T06:58:03.755Z,99.01
2018-12-26T06:59:04.219Z,99.32
2018-12-26T07:00:04.721Z,99.92
2018-12-26T07:01:05.213Z,100.33
2018-12-26T07:02:05.931Z,100.51
2018-12-26T07:03:06.271Z,100.66
2018-12-26T07:04:06.680Z,100.83
2018-12-26T07:05:06.928Z,101.02
2018-12-26T07:06:07.278Z,100.93
2018-12-26T07:07:07.740Z,100.86
2018-12-26T07:08:08.299Z,100.85
2018-12-26T07:09:08.611Z,101.11
2018-12-26T07:10:09.363Z,101.30
2018-12-26T07:11:09.643Z,101.47
2018-12-26T07:12:09.894Z,101.52
2018-12-26T07:13:10.263Z,101.56
2018-12-26T07:14:10.895Z,101.83
2018-12-26T07:15:11.116Z,102.08
2018-12-26T07:16:11.530Z,101.62
2018-12-26T07:17:12.018Z,101.42
2018-12-26T07:18:12.604Z,100.91
2018-12-26T07:19:12.896Z,101.13
2018-12-26T07:20:13.306Z,101.07
2018-12-26T07:21:13.600Z,101.28
2018-12-26T07:22:14.065Z,101.40
2018-12-26T07:23:14.392Z,101.31
2018-12-26T07:24:14.662Z,101.12
2018-12-26T07:25:15.054Z,101.11
2018-12-26T07:26:15.351Z,100.74
2018-12-26T07:27:15.610Z,100.02
2018-12-26T07:28:15.908Z,100.22
2018-12-26T07:29:16.277Z,99.83
2018-12-26T07:30:15.591Z,100.09
2018-12-26T07:31:17.048Z,100.16
2018-12-26T07:32:17.287Z,100.00
2018-12-26T07:33:17.583Z,99.65
2018-12-26T07:34:17.994Z,99.59
2018-12-26T07:35:18.252Z,99.72
2018-12-26T07:36:18.580Z,99.44
2018-12-26T07:37:19.054Z,99.31
2018-12-26T07:38:19.396Z,99.74
2018-12-26T07:39:19.601Z,98.90
2018-12-26T07:40:19.962Z,98.80
2018-12-26T07:41:20.685Z,98.55
2018-12-26T07:41:28.837Z,98.64
2018-12-26T07:42:30.108Z,98.67
2018-12-26T07:43:30.414Z,98.71
2018-12-26T07:44:30.663Z,98.47
2018-12-26T07:45:30.908Z,98.52
2018-12-26T07:46:31.276Z,99.14
2018-12-26T07:47:31.559Z,99.22
2018-12-26T07:48:32.060Z,99.06
2018-12-26T07:49:32.502Z,98.94
2018-12-26T07:50:32.834Z,98.87
2018-12-26T07:51:32.198Z,98.69
2018-12-26T07:52:33.752Z,98.84
2018-12-26T07:53:34.099Z,98.95
2018-12-26T07:54:34.469Z,98.50
2018-12-26T07:55:35.022Z,98.06
2018-12-26T07:56:35.402Z,98.13
2018-12-26T07:57:35.763Z,98.21
2018-12-26T07:58:35.350Z,98.05
2018-12-26T07:59:37.687Z,98.14
2018-12-26T08:00:36.008Z,98.00
2018-12-26T08:01:37.791Z,97.97
2018-12-26T08:02:38.155Z,97.52
2018-12-26T08:03:50.768Z,97.97
2018-12-26T08:04:37.815Z,97.83
2018-12-26T08:05:39.293Z,97.42
2018-12-26T08:06:39.686Z,96.95
2018-12-26T08:07:40.047Z,97.02
2018-12-26T08:08:40.936Z,97.26
2018-12-26T08:09:41.492Z,97.08
2018-12-26T08:10:41.849Z,96.72
2018-12-26T08:11:42.209Z,96.94
2018-12-26T08:12:42.560Z,96.60
2018-12-26T08:13:43.286Z,96.56
2018-12-26T08:14:43.788Z,96.92
2018-12-26T08:15:44.405Z,97.16
2018-12-26T08:16:44.716Z,97.19
2018-12-26T08:17:45.214Z,97.56
2018-12-26T08:18:45.560Z,97.35
2018-12-26T08:19:46.115Z,97.17
2018-12-26T08:20:46.529Z,96.69
2018-12-26T08:21:46.938Z,96.76
2018-12-26T08:22:47.185Z,96.28
2018-12-26T08:23:47.480Z,96.65
2018-12-26T08:24:47.795Z,96.91
2018-12-26T08:25:48.197Z,97.04
2018-12-26T08:26:48.550Z,97.28
2018-12-26T08:27:48.829Z,97.25
2018-12-26T08:28:49.109Z,96.98
2018-12-26T08:28:57.445Z,97.28
2018-12-26T08:29:58.833Z,97.28
2018-12-26T08:30:59.172Z,97.14
2018-12-26T08:31:59.609Z,97.17
2018-12-26T08:32:59.951Z,96.74
2018-12-26T08:34:00.339Z,96.40
2018-12-26T08:35:00.387Z,95.79
2018-12-26T08:36:00.769Z,95.69
2018-12-26T08:37:00.121Z,95.76
2018-12-26T08:38:01.641Z,95.60
2018-12-26T08:39:02.115Z,95.15
2018-12-26T08:40:02.571Z,94.58
2018-12-26T08:41:03.404Z,94.48
2018-12-26T08:42:03.701Z,94.59
2018-12-26T08:43:04.063Z,94.71
2018-12-26T08:44:04.439Z,94.90
2018-12-26T08:45:04.788Z,94.83
2018-12-26T08:46:05.255Z,94.69
2018-12-26T08:47:05.642Z,95.07
2018-12-26T08:48:06.048Z,95.55
2018-12-26T08:49:06.723Z,96.00
2018-12-26T08:50:07.047Z,95.61
2018-12-26T08:51:07.487Z,96.06
2018-12-26T08:52:08.456Z,95.99
2018-12-26T08:53:08.764Z,96.09
2018-12-26T08:54:09.485Z,95.80
2018-12-26T08:55:10.041Z,95.23
2018-12-26T08:56:10.519Z,95.66
2018-12-26T08:57:11.892Z,96.25
2018-12-26T08:58:11.252Z,95.59
2018-12-26T08:59:11.381Z,95.10
2018-12-26T09:00:11.848Z,95.06
2018-12-26T09:01:12.130Z,95.31
2018-12-26T09:02:12.943Z,95.59
2018-12-26T09:03:13.588Z,95.54
2018-12-26T09:04:13.996Z,95.72
2018-12-26T09:05:14.339Z,95.47
2018-12-26T09:06:14.950Z,95.88
2018-12-26T09:07:15.347Z,96.26
2018-12-26T09:08:16.210Z,95.99
2018-12-26T09:09:16.685Z,95.47
2018-12-26T09:10:17.273Z,95.54
2018-12-26T09:11:17.899Z,95.63
2018-12-26T09:11:27.848Z,95.88
2018-12-26T09:12:29.331Z,95.85
2018-12-26T09:13:29.630Z,95.84
2018-12-26T09:14:29.985Z,96.16
2018-12-26T09:15:30.287Z,96.46
2018-12-26T09:16:30.816Z,95.59
2018-12-26T09:17:31.574Z,95.17
2018-12-26T09:18:31.284Z,94.79
2018-12-26T09:19:31.818Z,94.63
2018-12-26T09:20:33.161Z,94.73
2018-12-26T09:21:34.177Z,94.79
2018-12-26T09:22:33.581Z,94.86
2018-12-26T09:23:33.835Z,95.29
2018-12-26T09:24:34.384Z,94.47
2018-12-26T09:25:34.696Z,94.59
2018-12-26T09:26:35.153Z,94.05
2018-12-26T09:27:35.911Z,94.45
2018-12-26T09:28:43.784Z,94.76
2018-12-26T09:29:36.087Z,94.79
2018-12-26T09:30:37.482Z,94.90
2018-12-26T09:31:37.142Z,94.62
2018-12-26T09:32:38.923Z,94.35
2018-12-26T09:33:39.300Z,94.27
2018-12-26T09:34:39.691Z,94.18
2018-12-26T09:35:40.256Z,94.62
2018-12-26T09:36:40.611Z,94.33
2018-12-26T09:37:40.922Z,93.87
2018-12-26T09:38:41.293Z,93.81
2018-12-26T09:39:41.659Z,94.06
2018-12-26T09:40:41.937Z,93.84
2018-12-26T09:41:42.247Z,94.32
2018-12-26T09:42:42.658Z,94.19
2018-12-26T09:43:42.514Z,93.87
2018-12-26T09:44:43.807Z,93.64
2018-12-26T09:45:44.088Z,93.16
2018-12-26T09:46:44.549Z,93.92
2018-12-26T09:47:45.007Z,94.08
2018-12-26T09:48:45.282Z,94.77
2018-12-26T09:49:45.703Z,95.30
2018-12-26T09:50:46.014Z,94.83
2018-12-26T09:51:46.896Z,94.38
2018-12-26T09:52:47.245Z,94.35
2018-12-26T09:53:47.574Z,93.94
2018-12-26T09:54:49.281Z,94.19
2018-12-26T09:55:47.149Z,94.19
2018-12-26T09:56:48.630Z,94.02
2018-12-26T09:57:49.122Z,94.23
2018-12-26T09:58:52.596Z,95.05
2018-12-26T09:59:48.947Z,94.38
2018-12-26T10:00:50.235Z,95.25
2018-12-26T10:01:50.615Z,95.01
2018-12-26T10:01:58.937Z,95.32
2018-12-26T10:03:00.203Z,95.27
2018-12-26T10:04:00.562Z,94.64
2018-12-26T10:05:00.876Z,94.16
2018-12-26T10:06:01.215Z,95.56
2018-12-26T10:07:01.527Z,95.24
2018-12-26T10:08:01.765Z,95.33
2018-12-26T10:09:02.162Z,94.96
2018-12-26T10:10:02.570Z,94.39
2018-12-26T10:11:02.905Z,95.03
2018-12-26T10:12:03.212Z,94.75
2018-12-26T10:13:03.824Z,94.68
2018-12-26T10:14:04.159Z,94.57
2018-12-26T10:15:04.777Z,94.62
2018-12-26T10:16:05.096Z,93.96
2018-12-26T10:17:05.558Z,93.62
2018-12-26T10:18:08.744Z,92.95
2018-12-26T10:19:05.472Z,92.81
2018-12-26T10:20:06.859Z,93.08
2018-12-26T10:21:07.630Z,92.98
2018-12-26T10:22:07.945Z,92.49
2018-12-26T10:23:08.431Z,92.39
2018-12-26T10:24:08.771Z,93.30
2018-12-26T10:25:09.266Z,93.59
2018-12-26T10:26:09.658Z,93.66
2018-12-26T10:27:10.169Z,94.11
2018-12-26T10:28:10.602Z,94.54
2018-12-26T10:29:10.909Z,93.63
2018-12-26T10:30:11.328Z,92.60
2018-12-26T10:31:11.577Z,93.09
2018-12-26T10:32:11.892Z,91.62
2018-12-26T10:33:12.242Z,91.47
2018-12-26T10:34:13.062Z,91.69
2018-12-26T10:35:13.465Z,91.11
2018-12-26T10:36:13.891Z,90.74
2018-12-26T10:37:14.296Z,91.39
2018-12-26T10:38:14.692Z,91.31
2018-12-26T10:39:15.073Z,91.67
2018-12-26T10:40:14.393Z,91.84
2018-12-26T10:41:15.831Z,91.82
2018-12-26T10:42:16.135Z,91.93
2018-12-26T10:43:16.502Z,92.06
2018-12-26T10:44:16.859Z,91.27
2018-12-26T10:45:17.203Z,90.72
2018-12-26T10:46:17.567Z,90.48
2018-12-26T10:47:17.847Z,90.38
2018-12-26T10:48:18.321Z,90.72
2018-12-26T10:48:28.404Z,90.30
2018-12-26T10:49:29.682Z,90.29
2018-12-26T10:50:30.019Z,90.01
2018-12-26T10:51:30.339Z,89.73
2018-12-26T10:52:31.128Z,89.95
2018-12-26T10:53:31.507Z,89.83
2018-12-26T10:54:31.804Z,90.04
2018-12-26T10:55:32.013Z,90.56
2018-12-26T10:56:32.426Z,90.92
2018-12-26T10:57:32.654Z,91.35
2018-12-26T10:58:32.945Z,90.98
2018-12-26T10:59:33.210Z,91.14
2018-12-26T11:00:33.623Z,91.16
2018-12-26T11:01:33.898Z,90.63
2018-12-26T11:02:34.294Z,90.84
2018-12-26T11:03:34.953Z,90.76
2018-12-26T11:04:34.972Z,90.87
2018-12-26T11:05:35.418Z,90.92
2018-12-26T11:06:35.739Z,91.05
2018-12-26T11:07:36.100Z,90.94
2018-12-26T11:08:36.583Z,90.10
2018-12-26T11:09:36.889Z,90.39
2018-12-26T11:10:37.275Z,91.09
2018-12-26T11:11:37.708Z,91.09
2018-12-26T11:12:38.043Z,91.36
2018-12-26T11:13:38.344Z,91.48
2018-12-26T11:14:38.734Z,92.06
2018-12-26T11:15:39.084Z,92.23
2018-12-26T11:16:39.407Z,92.27
2018-12-26T11:17:38.621Z,92.26
2018-12-26T11:18:39.987Z,91.92
2018-12-26T11:19:40.316Z,91.57
2018-12-26T11:20:40.667Z,91.71
2018-12-26T11:21:41.025Z,91.98
2018-12-26T11:22:41.312Z,92.09
2018-12-26T11:23:41.685Z,92.14
2018-12-26T11:24:42.004Z,91.85
2018-12-26T11:25:42.463Z,92.02
2018-12-26T11:26:42.833Z,92.23
2018-12-26T11:27:43.272Z,91.95
2018-12-26T11:28:43.830Z,91.99
2018-12-26T11:29:44.378Z,91.31
2018-12-26T11:30:44.787Z,90.35
2018-12-26T11:31:44.058Z,91.30
2018-12-26T11:32:45.311Z,91.71
2018-12-26T11:33:45.654Z,91.89
2018-12-26T11:34:46.156Z,91.34
2018-12-26T11:34:54.599Z,90.81
2018-12-26T11:35:55.175Z,90.86
2018-12-26T11:36:55.574Z,91.94
2018-12-26T11:37:55.823Z,92.32
2018-12-26T11:38:56.222Z,92.58
2018-12-26T11:39:56.545Z,92.62
2018-12-26T11:40:57.128Z,92.08
2018-12-26T11:41:57.529Z,91.99
2018-12-26T11:42:58.094Z,92.06
2018-12-26T11:43:58.496Z,92.30
2018-12-26T11:44:58.911Z,92.73
2018-12-26T11:45:58.149Z,92.66
2018-12-26T11:46:59.435Z,92.57
2018-12-26T11:48:00.175Z,93.14
2018-12-26T11:49:00.880Z,93.05
2018-12-26T11:50:01.237Z,93.31
2018-12-26T11:51:01.853Z,93.33
2018-12-26T11:52:02.158Z,93.04
2018-12-26T11:53:02.461Z,92.63
2018-12-26T11:54:03.186Z,92.41
2018-12-26T11:55:03.515Z,92.77
2018-12-26T11:56:03.919Z,93.24
2018-12-26T11:57:04.431Z,92.49
2018-12-26T11:58:04.784Z,92.69
2018-12-26T11:59:05.742Z,92.17
2018-12-26T12:00:06.058Z,92.30
2018-12-26T12:01:06.331Z,92.42
2018-12-26T12:02:07.015Z,92.55
2018-12-26T12:03:07.296Z,92.56
2018-12-26T12:04:07.678Z,93.09
2018-12-26T12:05:07.999Z,92.89
2018-12-26T12:06:08.429Z,92.93
2018-12-26T12:07:08.776Z,93.10
2018-12-26T12:08:09.134Z,92.76
2018-12-26T12:09:09.438Z,92.69
2018-12-26T12:10:10.018Z,92.69
2018-12-26T12:11:10.325Z,92.56
2018-12-26T12:12:10.720Z,93.09
2018-12-26T12:13:11.459Z,92.79
2018-12-26T12:14:11.695Z,92.65
2018-12-26T12:15:12.197Z,92.63
2018-12-26T12:16:12.795Z,92.89
2018-12-26T12:17:13.211Z,92.68
2018-12-26T12:18:13.542Z,92.42
2018-12-26T12:19:13.980Z,92.46
2018-12-26T12:20:14.294Z,92.48
2018-12-26T12:21:14.647Z,92.43
2018-12-26T12:21:22.990Z,92.58
2018-12-26T12:22:24.235Z,92.53
2018-12-26T12:23:24.572Z,92.34
2018-12-26T12:24:24.864Z,92.20
2018-12-26T12:25:25.662Z,92.33
2018-12-26T12:26:26.027Z,92.92
2018-12-26T12:27:26.482Z,92.43
2018-12-26T12:28:26.798Z,92.58
2018-12-26T12:29:35.761Z,93.01
2018-12-26T12:30:26.383Z,92.85
2018-12-26T12:31:28.071Z,92.44
2018-12-26T12:32:31.199Z,92.21
2018-12-26T12:33:28.518Z,92.29
2018-12-26T12:34:28.818Z,92.59
2018-12-26T12:35:29.142Z,92.98
2018-12-26T12:36:29.472Z,92.99
2018-12-26T12:37:30.211Z,93.47